<?xml version="1.0" encoding="UTF-8" standalone="no" ?>
<gpx xmlns="http://www.topografix.com/GPX/1/1" xmlns:xsi="http://www.w3.org/2001/XMLSchema-instance" xsi:schemaLocation="http://www.topografix.com/GPX/1/1 http://www.topografix.com/GPX/1/1/gpx.xsd" version="1.1" creator="VisuGPX - https://www.visugpx.com">
  <metadata>
    <name>13747768-ttt</name>
  </metadata>
  <trk>
    <name><![CDATA[13747768-ttt]]></name>
    <trkseg>
      <trkpt lat="45.01057" lon="2.98283">
        <ele>1004</ele>
        <time>2021-09-24T16:18:45Z</time>
      </trkpt>
      <trkpt lat="45.01052" lon="2.98296">
        <ele>1003</ele>
        <time>2021-09-24T16:18:53Z</time>
      </trkpt>
      <trkpt lat="45.01026" lon="2.98263">
        <ele>1004</ele>
        <time>2021-09-24T16:19:21Z</time>
      </trkpt>
      <trkpt lat="45.0091" lon="2.98138">
        <ele>1009</ele>
        <time>2021-09-24T16:21:18Z</time>
      </trkpt>
      <trkpt lat="45.00875" lon="2.98137">
        <ele>1010</ele>
        <time>2021-09-24T16:21:46Z</time>
      </trkpt>
      <trkpt lat="45.00817" lon="2.9812">
        <ele>1010</ele>
        <time>2021-09-24T16:22:34Z</time>
      </trkpt>
      <trkpt lat="45.00801" lon="2.98119">
        <ele>1010</ele>
        <time>2021-09-24T16:22:46Z</time>
      </trkpt>
      <trkpt lat="45.00801" lon="2.98127">
        <ele>1010</ele>
        <time>2021-09-24T16:22:51Z</time>
      </trkpt>
      <trkpt lat="45.00809" lon="2.98149">
        <ele>1010</ele>
        <time>2021-09-24T16:23:05Z</time>
      </trkpt>
      <trkpt lat="45.00807" lon="2.98164">
        <ele>1010</ele>
        <time>2021-09-24T16:23:14Z</time>
      </trkpt>
      <trkpt lat="45.00802" lon="2.98178">
        <ele>1010</ele>
        <time>2021-09-24T16:23:22Z</time>
      </trkpt>
      <trkpt lat="45.00787" lon="2.98202">
        <ele>1010</ele>
        <time>2021-09-24T16:23:41Z</time>
      </trkpt>
      <trkpt lat="45.00775" lon="2.98249">
        <ele>1009</ele>
        <time>2021-09-24T16:24:09Z</time>
      </trkpt>
      <trkpt lat="45.00771" lon="2.98252">
        <ele>1009</ele>
        <time>2021-09-24T16:24:12Z</time>
      </trkpt>
      <trkpt lat="45.00747" lon="2.98245">
        <ele>1009</ele>
        <time>2021-09-24T16:24:32Z</time>
      </trkpt>
      <trkpt lat="45.00739" lon="2.98245">
        <ele>1009</ele>
        <time>2021-09-24T16:24:39Z</time>
      </trkpt>
      <trkpt lat="45.00737" lon="2.98277">
        <ele>1008</ele>
        <time>2021-09-24T16:24:57Z</time>
      </trkpt>
      <trkpt lat="45.00735" lon="2.98283">
        <ele>1008</ele>
        <time>2021-09-24T16:25:00Z</time>
      </trkpt>
      <trkpt lat="45.00731" lon="2.98286">
        <ele>1008</ele>
        <time>2021-09-24T16:25:04Z</time>
      </trkpt>
      <trkpt lat="45.00718" lon="2.98289">
        <ele>1008</ele>
        <time>2021-09-24T16:25:15Z</time>
      </trkpt>
      <trkpt lat="45.00713" lon="2.98288">
        <ele>1007</ele>
        <time>2021-09-24T16:25:19Z</time>
      </trkpt>
      <trkpt lat="45.00695" lon="2.98279">
        <ele>1007</ele>
        <time>2021-09-24T16:25:34Z</time>
      </trkpt>
      <trkpt lat="45.00688" lon="2.98278">
        <ele>1007</ele>
        <time>2021-09-24T16:25:40Z</time>
      </trkpt>
      <trkpt lat="45.00631" lon="2.98296">
        <ele>1006</ele>
        <time>2021-09-24T16:26:26Z</time>
      </trkpt>
      <trkpt lat="45.0062" lon="2.9835">
        <ele>1006</ele>
        <time>2021-09-24T16:26:58Z</time>
      </trkpt>
      <trkpt lat="45.00627" lon="2.98472">
        <ele>1004</ele>
        <time>2021-09-24T16:28:07Z</time>
      </trkpt>
      <trkpt lat="45.00624" lon="2.98508">
        <ele>1004</ele>
        <time>2021-09-24T16:28:28Z</time>
      </trkpt>
      <trkpt lat="45.0056" lon="2.98768">
        <ele>1006</ele>
        <time>2021-09-24T16:31:04Z</time>
      </trkpt>
      <trkpt lat="45.00548" lon="2.98844">
        <ele>1006</ele>
        <time>2021-09-24T16:31:48Z</time>
      </trkpt>
      <trkpt lat="45.00526" lon="2.98965">
        <ele>1007</ele>
        <time>2021-09-24T16:32:59Z</time>
      </trkpt>
      <trkpt lat="45.00498" lon="2.991">
        <ele>1007</ele>
        <time>2021-09-24T16:34:18Z</time>
      </trkpt>
      <trkpt lat="45.00482" lon="2.99158">
        <ele>1006</ele>
        <time>2021-09-24T16:34:54Z</time>
      </trkpt>
      <trkpt lat="45.0046" lon="2.99216">
        <ele>1005</ele>
        <time>2021-09-24T16:35:31Z</time>
      </trkpt>
      <trkpt lat="45.0042" lon="2.9935">
        <ele>1002</ele>
        <time>2021-09-24T16:36:53Z</time>
      </trkpt>
      <trkpt lat="45.00385" lon="2.99428">
        <ele>1003</ele>
        <time>2021-09-24T16:37:45Z</time>
      </trkpt>
      <trkpt lat="45.00374" lon="2.99449">
        <ele>1004</ele>
        <time>2021-09-24T16:38:00Z</time>
      </trkpt>
      <trkpt lat="45.00367" lon="2.99477">
        <ele>1005</ele>
        <time>2021-09-24T16:38:17Z</time>
      </trkpt>
      <trkpt lat="45.00363" lon="2.99513">
        <ele>1006</ele>
        <time>2021-09-24T16:38:38Z</time>
      </trkpt>
      <trkpt lat="45.00373" lon="2.99726">
        <ele>1008</ele>
        <time>2021-09-24T16:40:39Z</time>
      </trkpt>
      <trkpt lat="45.00367" lon="2.99756">
        <ele>1008</ele>
        <time>2021-09-24T16:40:56Z</time>
      </trkpt>
      <trkpt lat="45.00347" lon="2.99806">
        <ele>1009</ele>
        <time>2021-09-24T16:41:29Z</time>
      </trkpt>
      <trkpt lat="45.00265" lon="2.99982">
        <ele>1013</ele>
        <time>2021-09-24T16:43:28Z</time>
      </trkpt>
      <trkpt lat="45.00232" lon="3.00036">
        <ele>1014</ele>
        <time>2021-09-24T16:44:08Z</time>
      </trkpt>
      <trkpt lat="45.00212" lon="3.00076">
        <ele>1014</ele>
        <time>2021-09-24T16:44:36Z</time>
      </trkpt>
      <trkpt lat="45.00197" lon="3.00121">
        <ele>1014</ele>
        <time>2021-09-24T16:45:04Z</time>
      </trkpt>
      <trkpt lat="45.00147" lon="3.00334">
        <ele>1017</ele>
        <time>2021-09-24T16:47:11Z</time>
      </trkpt>
      <trkpt lat="45.00087" lon="3.00557">
        <ele>1016</ele>
        <time>2021-09-24T16:49:26Z</time>
      </trkpt>
      <trkpt lat="45.00003" lon="3.00766">
        <ele>1014</ele>
        <time>2021-09-24T16:51:43Z</time>
      </trkpt>
      <trkpt lat="44.99994" lon="3.00779">
        <ele>1013</ele>
        <time>2021-09-24T16:51:53Z</time>
      </trkpt>
      <trkpt lat="44.99996" lon="3.00789">
        <ele>1013</ele>
        <time>2021-09-24T16:51:59Z</time>
      </trkpt>
      <trkpt lat="45" lon="3.00882">
        <ele>1011</ele>
        <time>2021-09-24T16:52:52Z</time>
      </trkpt>
      <trkpt lat="45.00001" lon="3.01059">
        <ele>1008</ele>
        <time>2021-09-24T16:54:32Z</time>
      </trkpt>
      <trkpt lat="44.99993" lon="3.01063">
        <ele>1008</ele>
        <time>2021-09-24T16:54:39Z</time>
      </trkpt>
      <trkpt lat="44.99966" lon="3.01103">
        <ele>1002</ele>
        <time>2021-09-24T16:55:10Z</time>
      </trkpt>
      <trkpt lat="44.99961" lon="3.01117">
        <ele>1001</ele>
        <time>2021-09-24T16:55:19Z</time>
      </trkpt>
      <trkpt lat="44.99959" lon="3.0115">
        <ele>997</ele>
        <time>2021-09-24T16:55:37Z</time>
      </trkpt>
      <trkpt lat="44.99955" lon="3.01224">
        <ele>995</ele>
        <time>2021-09-24T16:56:19Z</time>
      </trkpt>
      <trkpt lat="44.99951" lon="3.0124">
        <ele>994</ele>
        <time>2021-09-24T16:56:29Z</time>
      </trkpt>
      <trkpt lat="44.99946" lon="3.01248">
        <ele>994</ele>
        <time>2021-09-24T16:56:35Z</time>
      </trkpt>
      <trkpt lat="44.9994" lon="3.01251">
        <ele>993</ele>
        <time>2021-09-24T16:56:40Z</time>
      </trkpt>
      <trkpt lat="44.9992" lon="3.0125">
        <ele>990</ele>
        <time>2021-09-24T16:56:56Z</time>
      </trkpt>
      <trkpt lat="44.99918" lon="3.01231">
        <ele>990</ele>
        <time>2021-09-24T16:57:07Z</time>
      </trkpt>
      <trkpt lat="44.99912" lon="3.0122">
        <ele>989</ele>
        <time>2021-09-24T16:57:15Z</time>
      </trkpt>
      <trkpt lat="44.99902" lon="3.0121">
        <ele>988</ele>
        <time>2021-09-24T16:57:25Z</time>
      </trkpt>
      <trkpt lat="44.9989" lon="3.01208">
        <ele>986</ele>
        <time>2021-09-24T16:57:34Z</time>
      </trkpt>
      <trkpt lat="44.99875" lon="3.01217">
        <ele>984</ele>
        <time>2021-09-24T16:57:48Z</time>
      </trkpt>
      <trkpt lat="44.99869" lon="3.01225">
        <ele>983</ele>
        <time>2021-09-24T16:57:54Z</time>
      </trkpt>
      <trkpt lat="44.99856" lon="3.01257">
        <ele>981</ele>
        <time>2021-09-24T16:58:15Z</time>
      </trkpt>
      <trkpt lat="44.99842" lon="3.013">
        <ele>979</ele>
        <time>2021-09-24T16:58:42Z</time>
      </trkpt>
      <trkpt lat="44.99835" lon="3.01324">
        <ele>977</ele>
        <time>2021-09-24T16:58:57Z</time>
      </trkpt>
      <trkpt lat="44.9983" lon="3.01368">
        <ele>977</ele>
        <time>2021-09-24T16:59:22Z</time>
      </trkpt>
      <trkpt lat="44.99834" lon="3.01413">
        <ele>977</ele>
        <time>2021-09-24T16:59:47Z</time>
      </trkpt>
      <trkpt lat="44.99831" lon="3.0142">
        <ele>977</ele>
        <time>2021-09-24T16:59:52Z</time>
      </trkpt>
      <trkpt lat="44.99826" lon="3.01426">
        <ele>976</ele>
        <time>2021-09-24T16:59:57Z</time>
      </trkpt>
      <trkpt lat="44.99749" lon="3.01453">
        <ele>964</ele>
        <time>2021-09-24T17:01:01Z</time>
      </trkpt>
      <trkpt lat="44.99743" lon="3.01473">
        <ele>963</ele>
        <time>2021-09-24T17:01:13Z</time>
      </trkpt>
      <trkpt lat="44.99738" lon="3.015">
        <ele>963</ele>
        <time>2021-09-24T17:01:29Z</time>
      </trkpt>
      <trkpt lat="44.99728" lon="3.01564">
        <ele>962</ele>
        <time>2021-09-24T17:02:06Z</time>
      </trkpt>
      <trkpt lat="44.99689" lon="3.01563">
        <ele>954</ele>
        <time>2021-09-24T17:02:37Z</time>
      </trkpt>
      <trkpt lat="44.99691" lon="3.01569">
        <ele>954</ele>
        <time>2021-09-24T17:02:41Z</time>
      </trkpt>
      <trkpt lat="44.99688" lon="3.0157">
        <ele>953</ele>
        <time>2021-09-24T17:02:44Z</time>
      </trkpt>
      <trkpt lat="44.99683" lon="3.01573">
        <ele>952</ele>
        <time>2021-09-24T17:02:48Z</time>
      </trkpt>
      <trkpt lat="44.99677" lon="3.01575">
        <ele>951</ele>
        <time>2021-09-24T17:02:53Z</time>
      </trkpt>
      <trkpt lat="44.99671" lon="3.01578">
        <ele>949</ele>
        <time>2021-09-24T17:02:58Z</time>
      </trkpt>
    </trkseg>
  </trk>
</gpx>